Accueil
METAR-TAF:

METAR-TAF

Aéroports :

Aéroport de Lanzarote

Lanzarote, Espagne

latitude: 28-57N, longitude: 013-36W, altitude: 14 m

Observation

Le bulletin a été fait il y a 20 minutes, à 10:00 UTC
Vent 8 kt de est/nord-est
Température 23°C
Humidité 83%
Pression 1014 hPa
Visibilité 10 km ou plus
Quelques nuages à une hauteur de 1500 ft
Nuages épars à une hauteur de 2500 ft

METAR: GCRR 051000Z 07008KT 9999 FEW015 SCT025 23/20 Q1014

Heure: 11:20 (10:20 UTC)

Prévision

Le bulletin a été fait il y a 2 heures et 20 minutes, à 08:00 UTC
Prévision valable du 05 à 09 UTC au 06 à 09 UTC
Vent 7 kt de sud-est
Visibilité 10 km ou plus
Quelques nuages à une hauteur de 2000 ft

TAF: GCRR 050800Z 0509/0609 14007KT 9999 FEW020 TX26/0511Z TN20/0606Z

Observations et prévisions météorologiques de plus de 4000 aéroports (messages METAR et TAF).

Les stations disponibles sont représentées par des disques jaunes et rouges sur la carte.

Passer la souris dessus pour voir le nom de la station.

Cliquer dessus pour voir les observations et prévisions météorologiques.

Pour changer de carte: cliquez sur les boutons verts avec une croix noire pour zoomer, sur le bouton vert avec un tiret pour effectuer un zoom arrière, ou sur les flèches vertes pour les cartes adjacentes.


METAR-TAF: